createdAt,value
2022-08-22T00:00:15.769Z,17.79
2022-08-22T00:02:47.465Z,22.91
2022-08-22T00:03:01.115Z,20.28
2022-08-22T00:03:25.078Z,17.84
2022-08-22T00:06:10.220Z,17.78
2022-08-22T00:09:16.453Z,17.70
2022-08-22T00:11:52.887Z,17.69
2022-08-22T00:14:24.816Z,17.72
2022-08-22T00:17:12.803Z,17.74
2022-08-22T00:19:48.796Z,17.82
2022-08-22T00:22:40.347Z,17.92
2022-08-22T00:25:25.605Z,17.83
2022-08-22T00:28:07.520Z,17.89
2022-08-22T00:30:44.442Z,17.86
2022-08-22T00:33:31.125Z,17.88
2022-08-22T00:36:40.814Z,17.92
2022-08-22T00:39:19.633Z,17.94
2022-08-22T00:41:58.559Z,17.93
2022-08-22T00:44:40.764Z,17.84
2022-08-22T00:47:18.326Z,17.86
2022-08-22T00:49:54.395Z,17.90
2022-08-22T00:52:28.821Z,17.81
2022-08-22T00:55:07.369Z,17.73
2022-08-22T00:57:47.264Z,17.56
2022-08-22T01:00:26.814Z,17.69
2022-08-22T01:03:05.596Z,17.69
2022-08-22T01:05:46.766Z,17.75
2022-08-22T01:08:16.374Z,17.77
2022-08-22T01:11:18.398Z,17.63
2022-08-22T01:14:35.118Z,17.47
2022-08-22T01:17:27.125Z,17.54
2022-08-22T01:19:54.340Z,17.49
2022-08-22T01:22:55.099Z,17.38
2022-08-22T01:25:46.670Z,17.45
2022-08-22T01:28:17.722Z,17.53
2022-08-22T01:31:16.125Z,17.60
2022-08-22T01:34:12.931Z,17.70
2022-08-22T01:36:52.383Z,17.69
2022-08-22T01:39:57.204Z,17.70
2022-08-22T01:42:36.889Z,17.66
2022-08-22T01:45:09.660Z,17.68
2022-08-22T01:47:56.559Z,17.61
2022-08-22T01:50:32.714Z,17.52
2022-08-22T01:53:09.137Z,17.41
2022-08-22T01:55:42.944Z,17.54
2022-08-22T01:58:30.379Z,17.60
2022-08-22T02:01:03.086Z,17.79
2022-08-22T02:04:02.936Z,17.69
2022-08-22T02:06:43.096Z,17.66
2022-08-22T02:09:33.658Z,17.65
2022-08-22T02:12:21.683Z,17.68
2022-08-22T02:15:15.117Z,17.65
2022-08-22T02:18:06.925Z,17.57
2022-08-22T02:20:40.553Z,17.55
2022-08-22T02:23:28.058Z,17.58
2022-08-22T02:26:04.224Z,17.67
2022-08-22T02:28:58.138Z,17.61
2022-08-22T02:31:37.859Z,17.54
2022-08-22T02:34:37.458Z,17.54
2022-08-22T02:37:13.641Z,17.42
2022-08-22T02:39:49.815Z,17.38
2022-08-22T02:42:33.083Z,17.34
2022-08-22T02:45:11.782Z,17.25
2022-08-22T02:47:50.245Z,17.18
2022-08-22T02:50:25.488Z,17.23
2022-08-22T02:53:21.090Z,17.21
2022-08-22T02:55:57.132Z,17.18
2022-08-22T02:58:57.000Z,17.18
2022-08-22T03:01:32.030Z,17.25
2022-08-22T03:04:38.118Z,17.21
2022-08-22T03:07:12.301Z,17.22
2022-08-22T03:09:49.996Z,17.17
2022-08-22T03:12:29.899Z,17.18
2022-08-22T03:14:57.127Z,17.17
2022-08-22T03:17:31.759Z,17.13
2022-08-22T03:20:10.171Z,17.09
2022-08-22T03:22:39.801Z,17.09
2022-08-22T03:25:09.665Z,17.13
2022-08-22T03:27:47.124Z,17.03
2022-08-22T03:30:21.668Z,17.13
2022-08-22T03:32:59.574Z,17.21
2022-08-22T03:35:39.151Z,17.16
2022-08-22T03:38:24.356Z,17.23
2022-08-22T03:41:19.157Z,17.29
2022-08-22T03:44:15.152Z,17.25
2022-08-22T03:47:09.766Z,17.34
2022-08-22T03:49:42.661Z,17.43
2022-08-22T03:52:19.500Z,17.46
2022-08-22T03:54:52.279Z,17.48
2022-08-22T03:57:36.677Z,17.32
2022-08-22T04:00:52.478Z,17.26
2022-08-22T04:03:26.511Z,17.36
2022-08-22T04:06:22.640Z,17.26
2022-08-22T04:09:03.240Z,17.23
2022-08-22T04:11:51.092Z,17.28
2022-08-22T04:14:38.427Z,17.43
2022-08-22T04:17:34.074Z,17.53
2022-08-22T04:20:21.390Z,17.66
2022-08-22T04:22:51.173Z,17.76
2022-08-22T04:25:23.785Z,17.80
2022-08-22T04:28:08.846Z,17.82
2022-08-22T04:30:44.326Z,17.80
2022-08-22T04:33:21.344Z,17.85
2022-08-22T04:36:15.762Z,17.92
2022-08-22T05:10:14.895Z,17.60
2022-08-22T05:16:40.233Z,17.64
2022-08-22T05:19:27.092Z,17.73
2022-08-22T05:21:57.403Z,17.76
2022-08-22T05:24:32.381Z,17.94
2022-08-22T05:27:15.744Z,18.06
2022-08-22T05:29:46.620Z,18.01
2022-08-22T05:32:25.849Z,17.97
2022-08-22T05:34:59.254Z,17.99
2022-08-22T05:37:40.798Z,18.20
2022-08-22T05:40:11.230Z,18.17
2022-08-22T05:42:38.365Z,18.35
2022-08-22T05:45:11.513Z,18.46
2022-08-22T05:47:47.320Z,18.48
2022-08-22T05:50:36.340Z,18.21
2022-08-22T05:53:19.522Z,18.30
2022-08-22T05:56:02.851Z,18.41
2022-08-22T05:58:38.839Z,18.35
2022-08-22T06:01:05.811Z,18.45
2022-08-22T06:04:15.229Z,18.71
2022-08-22T06:07:02.717Z,18.61
2022-08-22T06:09:48.105Z,18.81
2022-08-22T06:12:22.287Z,18.92
2022-08-22T06:15:23.181Z,19.09
2022-08-22T06:17:57.834Z,19.25
2022-08-22T06:20:49.557Z,19.29
2022-08-22T06:23:32.916Z,19.37
2022-08-22T06:26:01.439Z,19.46
2022-08-22T06:28:54.801Z,19.54
2022-08-22T06:31:38.243Z,19.59
2022-08-22T06:34:13.251Z,19.69
2022-08-22T06:36:44.758Z,19.79
2022-08-22T06:39:11.680Z,19.90
2022-08-22T06:42:21.537Z,20.06
2022-08-22T06:45:00.887Z,20.17
2022-08-22T06:47:33.561Z,20.35
2022-08-22T06:50:06.102Z,20.47
2022-08-22T06:52:51.536Z,20.56
2022-08-22T06:55:19.295Z,20.71
2022-08-22T06:57:55.558Z,20.85
2022-08-22T07:00:23.745Z,21.06
2022-08-22T07:02:59.133Z,21.23
2022-08-22T07:05:36.073Z,21.46
2022-08-22T07:08:09.146Z,21.65
2022-08-22T07:10:39.785Z,21.93
2022-08-22T07:13:08.357Z,22.04
2022-08-22T07:15:37.341Z,22.23
2022-08-22T07:18:09.800Z,22.42
2022-08-22T07:20:45.128Z,22.49
2022-08-22T07:23:36.183Z,22.65
2022-08-22T07:26:20.747Z,22.71
2022-08-22T07:28:58.716Z,22.83
2022-08-22T07:31:34.744Z,23.00
2022-08-22T07:34:26.455Z,23.12
2022-08-22T07:37:14.765Z,23.24
2022-08-22T07:40:00.671Z,23.27
2022-08-22T07:42:46.507Z,23.33
2022-08-22T07:45:22.897Z,23.42
2022-08-22T07:48:25.431Z,23.53
2022-08-22T07:50:58.878Z,23.89
2022-08-22T07:53:26.075Z,23.93
2022-08-22T07:55:55.645Z,24.02
2022-08-22T07:58:25.676Z,23.91
2022-08-22T08:00:54.237Z,24.04
2022-08-22T08:03:24.148Z,23.95
2022-08-22T08:05:51.858Z,23.84
2022-08-22T08:08:31.544Z,23.90
2022-08-22T08:11:00.392Z,23.95
2022-08-22T08:13:35.399Z,23.92
2022-08-22T08:16:06.541Z,24.10
2022-08-22T08:18:35.843Z,24.09
2022-08-22T08:21:06.940Z,24.12
2022-08-22T08:23:42.773Z,24.16
2022-08-22T08:26:17.425Z,24.05
2022-08-22T08:28:49.226Z,24.04
2022-08-22T08:31:25.438Z,24.15
2022-08-22T08:34:05.110Z,24.29
2022-08-22T08:36:50.590Z,24.27
2022-08-22T08:39:35.442Z,24.35
2022-08-22T08:42:33.857Z,24.35
2022-08-22T08:45:18.700Z,24.48
2022-08-22T08:47:54.074Z,24.51
2022-08-22T08:50:58.571Z,24.60
2022-08-22T08:53:53.133Z,24.56
2022-08-22T08:59:49.035Z,24.59
2022-08-22T09:02:46.698Z,24.66
2022-08-22T09:05:29.885Z,24.68
2022-08-22T09:08:38.314Z,24.75
2022-08-22T09:11:39.239Z,24.93
2022-08-22T09:14:26.672Z,24.97
2022-08-22T09:17:17.166Z,24.84
2022-08-22T09:19:54.280Z,24.83
2022-08-22T09:22:35.127Z,24.90
2022-08-22T09:25:41.279Z,24.99
2022-08-22T09:28:08.221Z,25.24
2022-08-22T09:30:58.119Z,25.44
2022-08-22T09:33:37.654Z,25.52
2022-08-22T09:36:20.697Z,25.56
2022-08-22T09:39:03.822Z,25.71
2022-08-22T09:41:51.766Z,25.84
2022-08-22T09:44:31.151Z,25.91
2022-08-22T09:47:24.927Z,25.85
2022-08-22T09:50:00.849Z,26.03
2022-08-22T09:52:53.871Z,26.19
2022-08-22T09:55:35.926Z,26.02
2022-08-22T09:58:14.561Z,25.83
2022-08-22T10:00:57.007Z,26.16
2022-08-22T10:04:03.653Z,26.26
2022-08-22T10:06:44.701Z,26.34
2022-08-22T10:09:25.213Z,26.31
2022-08-22T10:12:12.785Z,26.35
2022-08-22T10:15:07.858Z,26.36
2022-08-22T10:17:46.307Z,26.46
2022-08-22T10:20:23.234Z,26.81
2022-08-22T10:22:56.112Z,27.02
2022-08-22T10:25:42.117Z,26.98
2022-08-22T10:28:10.547Z,26.63
2022-08-22T10:31:09.992Z,26.10
2022-08-22T10:33:46.078Z,26.50
2022-08-22T10:36:20.440Z,27.22
2022-08-22T10:38:53.336Z,27.63
2022-08-22T10:41:36.430Z,28.31
2022-08-22T10:44:27.445Z,29.04
2022-08-22T10:47:01.304Z,29.39
2022-08-22T10:49:33.723Z,30.00
2022-08-22T10:52:17.278Z,29.99
2022-08-22T10:54:53.178Z,30.39
2022-08-22T10:57:41.491Z,30.63
2022-08-22T11:00:13.397Z,29.63
2022-08-22T11:02:53.309Z,29.50
2022-08-22T11:05:20.542Z,30.31
2022-08-22T11:08:01.833Z,30.76
2022-08-22T11:11:14.099Z,31.64
2022-08-22T11:14:09.060Z,32.00
2022-08-22T11:16:44.260Z,32.42
2022-08-22T11:19:32.953Z,32.68
2022-08-22T11:22:34.310Z,33.03
2022-08-22T11:25:35.732Z,33.33
2022-08-22T11:28:45.849Z,32.92
2022-08-22T11:31:36.672Z,33.22
2022-08-22T11:34:23.753Z,32.35
2022-08-22T11:37:11.683Z,31.85
2022-08-22T11:40:12.054Z,32.49
2022-08-22T11:42:51.243Z,32.89
2022-08-22T11:45:25.017Z,33.45
2022-08-22T11:48:02.536Z,33.97
2022-08-22T11:50:42.382Z,33.55
2022-08-22T11:53:22.836Z,33.39
2022-08-22T11:55:59.394Z,32.66
2022-08-22T11:58:38.844Z,31.68
2022-08-22T12:01:11.823Z,31.58
2022-08-22T12:03:59.423Z,32.42
2022-08-22T12:06:50.624Z,33.45
2022-08-22T12:09:24.203Z,34.45
2022-08-22T12:11:58.685Z,34.81
2022-08-22T12:14:36.326Z,35.07
2022-08-22T12:17:18.977Z,35.71
2022-08-22T12:20:16.437Z,36.06
2022-08-22T12:22:49.811Z,35.79
2022-08-22T12:25:32.709Z,35.95
2022-08-22T12:28:17.787Z,35.06
2022-08-22T12:31:01.902Z,34.51
2022-08-22T12:33:34.768Z,34.45
2022-08-22T12:36:18.292Z,34.92
2022-08-22T12:39:04.001Z,35.71
2022-08-22T12:41:46.510Z,36.54
2022-08-22T12:44:34.425Z,35.77
2022-08-22T12:47:17.339Z,34.59
2022-08-22T12:50:02.918Z,35.87
2022-08-22T12:52:40.984Z,36.23
2022-08-22T12:55:20.130Z,36.87
2022-08-22T12:58:11.543Z,37.35
2022-08-22T13:00:45.164Z,38.03
2022-08-22T13:03:29.809Z,37.51
2022-08-22T13:06:00.305Z,37.37
2022-08-22T13:08:37.011Z,37.91
2022-08-22T13:11:15.120Z,38.35
2022-08-22T13:14:00.930Z,37.24
2022-08-22T13:16:49.129Z,36.40
2022-08-22T13:19:24.153Z,35.32
2022-08-22T13:22:02.755Z,34.20
2022-08-22T13:24:57.157Z,33.99
2022-08-22T13:27:30.756Z,33.43
2022-08-22T13:30:02.407Z,33.08
2022-08-22T13:32:45.036Z,32.73
2022-08-22T13:35:44.703Z,32.44
2022-08-22T13:38:39.138Z,32.17
2022-08-22T13:41:24.533Z,31.91
2022-08-22T13:44:15.297Z,31.75
2022-08-22T13:47:13.067Z,31.53
2022-08-22T13:49:40.068Z,31.41
2022-08-22T13:52:38.563Z,31.67
2022-08-22T13:55:12.637Z,33.00
2022-08-22T13:57:45.718Z,34.33
2022-08-22T14:00:29.141Z,35.84
2022-08-22T14:03:08.070Z,37.02
2022-08-22T14:05:44.753Z,38.49
2022-08-22T14:08:19.999Z,39.15
2022-08-22T14:10:57.962Z,39.98
2022-08-22T14:13:50.529Z,39.29
2022-08-22T14:16:27.301Z,38.81
2022-08-22T14:19:06.140Z,39.42
2022-08-22T14:21:47.464Z,39.63
2022-08-22T14:24:25.886Z,39.68
2022-08-22T14:27:00.042Z,40.54
2022-08-22T14:29:51.474Z,40.82
2022-08-22T14:32:22.653Z,40.41
2022-08-22T14:35:05.943Z,40.80
2022-08-22T14:37:42.142Z,40.60
2022-08-22T14:40:17.899Z,41.53
2022-08-22T14:42:47.637Z,41.22
2022-08-22T14:45:22.332Z,41.15
2022-08-22T14:48:30.196Z,41.72
2022-08-22T14:50:56.859Z,40.84
2022-08-22T14:53:26.578Z,41.38
2022-08-22T14:56:01.033Z,41.14
2022-08-22T14:58:31.435Z,41.35
2022-08-22T15:01:10.006Z,41.35
2022-08-22T15:03:40.383Z,40.49
2022-08-22T15:06:29.323Z,40.63
2022-08-22T15:08:57.633Z,40.04
2022-08-22T15:11:31.897Z,39.47
2022-08-22T15:14:08.462Z,38.27
2022-08-22T15:16:45.357Z,37.18
2022-08-22T15:19:27.379Z,36.23
2022-08-22T15:22:07.865Z,35.06
2022-08-22T15:24:41.403Z,34.13
2022-08-22T15:27:10.573Z,33.82
2022-08-22T15:29:50.993Z,33.58
2022-08-22T15:32:23.952Z,33.31
2022-08-22T15:35:04.297Z,32.92
2022-08-22T15:37:35.016Z,32.49
2022-08-22T15:40:11.683Z,32.07
2022-08-22T15:42:44.157Z,32.04
2022-08-22T15:45:33.841Z,31.82
2022-08-22T15:48:04.469Z,31.62
2022-08-22T15:50:38.808Z,31.31
2022-08-22T15:53:19.713Z,31.08
2022-08-22T15:56:16.746Z,31.09
2022-08-22T15:58:49.245Z,30.97
2022-08-22T16:01:22.209Z,30.78
2022-08-22T16:04:14.507Z,30.48
2022-08-22T16:06:49.150Z,30.42
2022-08-22T16:09:43.510Z,30.53
2022-08-22T16:12:24.582Z,31.33
2022-08-22T16:14:52.507Z,31.71
2022-08-22T16:17:28.756Z,31.52
2022-08-22T16:20:07.745Z,31.30
2022-08-22T16:23:00.283Z,31.09
2022-08-22T16:25:48.170Z,30.86
2022-08-22T16:29:05.783Z,30.58
2022-08-22T16:31:58.967Z,30.43
2022-08-22T16:34:37.912Z,30.28
2022-08-22T16:37:14.953Z,30.30
2022-08-22T16:39:48.715Z,30.04
2022-08-22T16:42:15.867Z,29.66
2022-08-22T16:45:05.780Z,29.55
2022-08-22T16:47:32.766Z,29.43
2022-08-22T16:50:24.054Z,29.40
2022-08-22T16:52:54.207Z,29.17
2022-08-22T16:55:30.200Z,29.03
2022-08-22T16:58:06.391Z,28.94
2022-08-22T17:00:36.977Z,28.76
2022-08-22T17:03:11.738Z,28.46
2022-08-22T17:06:23.922Z,28.55
2022-08-22T17:09:14.461Z,28.54
2022-08-22T17:11:56.504Z,28.42
2022-08-22T17:14:41.863Z,28.39
2022-08-22T17:17:16.662Z,28.12
2022-08-22T17:19:53.059Z,28.10
2022-08-22T17:22:38.449Z,28.01
2022-08-22T17:25:20.841Z,27.96
2022-08-22T17:28:04.427Z,27.95
2022-08-22T17:30:40.995Z,27.78
2022-08-22T17:33:20.226Z,27.65
2022-08-22T17:36:26.837Z,27.57
2022-08-22T17:39:33.234Z,27.48
2022-08-22T17:42:22.060Z,27.27
2022-08-22T17:45:23.405Z,27.11
2022-08-22T17:48:02.565Z,27.05
2022-08-22T17:50:54.949Z,27.02
2022-08-22T17:53:32.805Z,26.86
2022-08-22T17:56:16.783Z,26.75
2022-08-22T17:59:20.987Z,26.65
2022-08-22T18:01:59.495Z,26.34
2022-08-22T18:04:43.361Z,26.38
2022-08-22T18:07:14.031Z,26.30
2022-08-22T18:10:04.592Z,26.22
2022-08-22T18:12:40.609Z,26.18
2022-08-22T18:15:43.512Z,26.20
2022-08-22T18:18:30.293Z,26.03
2022-08-22T18:21:11.678Z,26.05
2022-08-22T18:23:51.361Z,25.93
2022-08-22T18:26:29.297Z,25.84
2022-08-22T18:35:16.193Z,25.62
2022-08-22T18:38:25.794Z,25.44
2022-08-22T18:41:04.793Z,25.35
2022-08-22T18:43:40.309Z,25.28
2022-08-22T18:46:31.783Z,25.15
2022-08-22T18:49:15.033Z,25.08
2022-08-22T18:51:43.194Z,24.97
2022-08-22T18:54:13.818Z,24.94
2022-08-22T18:57:00.370Z,24.93
2022-08-22T18:59:43.074Z,24.89
2022-08-22T19:02:37.586Z,24.76
2022-08-22T19:05:31.346Z,24.69
2022-08-22T19:08:04.673Z,24.61
2022-08-22T19:10:45.256Z,24.57
2022-08-22T19:13:25.175Z,24.55
2022-08-22T19:16:34.015Z,24.41
2022-08-22T19:19:17.077Z,24.31
2022-08-22T19:22:21.862Z,24.24
2022-08-22T19:25:10.846Z,24.21
2022-08-22T19:28:02.862Z,24.12
2022-08-22T19:31:18.720Z,24.02
2022-08-22T19:33:49.840Z,23.96
2022-08-22T19:36:33.068Z,23.81
2022-08-22T19:39:09.144Z,23.87
2022-08-22T19:41:54.535Z,23.85
2022-08-22T19:44:21.610Z,23.85
2022-08-22T19:47:00.859Z,23.78
2022-08-22T19:49:36.182Z,23.65
2022-08-22T19:52:13.571Z,23.51
2022-08-22T19:55:05.805Z,23.43
2022-08-22T19:57:56.214Z,23.44
2022-08-22T20:00:30.831Z,23.34
2022-08-22T20:03:38.130Z,23.31
2022-08-22T20:06:42.940Z,23.19
2022-08-22T20:09:39.025Z,23.06
2022-08-22T20:12:22.527Z,23.08
2022-08-22T20:14:50.051Z,23.00
2022-08-22T20:17:33.056Z,22.96
2022-08-22T20:20:35.102Z,22.81
2022-08-22T20:23:09.111Z,22.87
2022-08-22T20:28:31.445Z,22.74
2022-08-22T20:31:01.567Z,22.65
2022-08-22T20:33:36.913Z,22.58
2022-08-22T20:36:18.486Z,22.52
2022-08-22T20:39:00.445Z,22.41
2022-08-22T20:41:36.041Z,22.41
2022-08-22T20:44:06.214Z,22.31
2022-08-22T20:47:01.876Z,22.34
2022-08-22T20:49:47.048Z,22.27
2022-08-22T20:52:39.452Z,22.24
2022-08-22T20:55:31.322Z,22.21
2022-08-22T21:00:48.115Z,22.10
2022-08-22T21:03:48.982Z,22.09
2022-08-22T21:06:29.750Z,22.01
2022-08-22T21:09:00.004Z,22.00
2022-08-22T21:11:49.857Z,21.98
2022-08-22T21:14:19.322Z,21.93
2022-08-22T21:16:49.192Z,21.89
2022-08-22T21:19:50.903Z,21.90
2022-08-22T21:22:19.928Z,21.83
2022-08-22T21:24:59.749Z,21.75
2022-08-22T21:27:27.992Z,21.74
2022-08-22T21:29:55.540Z,21.70
2022-08-22T21:35:19.324Z,21.52
2022-08-22T21:37:46.996Z,21.53
2022-08-22T21:46:39.847Z,21.07
2022-08-22T21:49:07.917Z,21.16
2022-08-22T21:51:47.021Z,21.18
2022-08-22T21:54:26.318Z,21.08
2022-08-22T21:56:58.734Z,21.03
2022-08-22T21:59:50.622Z,21.03
2022-08-22T22:02:40.368Z,20.93
2022-08-22T22:05:16.002Z,20.95
2022-08-22T22:07:46.526Z,20.95
2022-08-22T22:10:17.193Z,20.91
2022-08-22T22:12:47.538Z,20.81
2022-08-22T22:15:19.181Z,20.78
2022-08-22T22:17:46.376Z,20.83
2022-08-22T22:20:16.369Z,20.84
2022-08-22T22:22:46.648Z,20.82
2022-08-22T22:25:38.844Z,20.87
2022-08-22T22:28:10.693Z,20.84
2022-08-22T22:30:37.918Z,20.78
2022-08-22T22:33:05.069Z,20.70
2022-08-22T22:35:32.645Z,20.64
2022-08-22T22:37:59.916Z,20.52
2022-08-22T22:40:27.137Z,20.47
2022-08-22T22:42:54.481Z,20.58
2022-08-22T22:45:21.641Z,20.41
2022-08-22T22:47:48.729Z,20.41
2022-08-22T22:50:16.035Z,20.38
2022-08-22T22:52:43.104Z,20.46
2022-08-22T22:55:10.428Z,20.45
2022-08-22T22:57:42.355Z,20.34
2022-08-22T23:00:12.782Z,20.37
2022-08-22T23:02:40.148Z,20.28
2022-08-22T23:05:09.647Z,20.27
2022-08-22T23:07:37.453Z,20.30
2022-08-22T23:10:07.148Z,20.24
2022-08-22T23:12:36.434Z,20.19
2022-08-22T23:15:06.036Z,20.16
2022-08-22T23:17:34.303Z,20.18
2022-08-22T23:20:01.867Z,20.23
2022-08-22T23:22:30.523Z,20.07
2022-08-22T23:24:57.708Z,20.01
2022-08-22T23:27:25.130Z,19.99
2022-08-22T23:29:52.650Z,19.95
2022-08-22T23:32:20.075Z,19.87
2022-08-22T23:34:48.795Z,19.91
2022-08-22T23:37:22.580Z,19.89
2022-08-22T23:39:53.179Z,19.77
2022-08-22T23:42:20.442Z,19.77
2022-08-22T23:44:47.809Z,19.81
2022-08-22T23:47:15.383Z,19.75
2022-08-22T23:49:42.855Z,19.74
2022-08-22T23:52:12.273Z,19.69
2022-08-22T23:54:39.654Z,19.66
2022-08-22T23:57:11.464Z,19.66
2022-08-22T23:59:46.375Z,19.62
